Time;durP1;ratioP1;P1;durP2;ratioP2;P2;SDS_P1;SDS_P2;PMS_P1;PMS_P2;Temp;Humidity;BMP_temperature;BMP_pressure;BME280_temperature;BME280_humidity;BME280_pressure;Samples;Min_cycle;Max_cycle;Signal;HPM_P1;HPM_P2
2023/03/22 00:00:48;;;;;;;6.30;3.90;;;11.70;74.90;;;;;;5034051;28;20571;-74
2023/03/22 00:03:15;;;;;;;5.00;3.53;;;11.70;74.90;;;;;;5023969;28;20472;-73
2023/03/22 00:05:40;;;;;;;8.73;4.10;;;11.60;75.20;;;;;;5029834;28;20427;-74
2023/03/22 00:08:07;;;;;;;4.97;3.40;;;11.50;75.40;;;;;;5028904;28;20424;-74
2023/03/22 00:10:34;;;;;;;6.27;3.70;;;11.50;75.80;;;;;;5025293;28;20679;-74
2023/03/22 00:13:00;;;;;;;5.27;2.93;;;11.50;75.70;;;;;;5016470;28;20551;-74
2023/03/22 00:15:28;;;;;;;4.70;2.87;;;11.50;75.20;;;;;;5027452;28;20503;-75
2023/03/22 00:17:54;;;;;;;3.70;2.63;;;11.50;75.20;;;;;;5015841;28;20186;-75
2023/03/22 00:20:22;;;;;;;4.07;3.00;;;11.40;75.50;;;;;;5025333;28;20553;-75
2023/03/22 00:22:48;;;;;;;6.00;3.40;;;11.50;75.50;;;;;;5034037;28;20804;-74
2023/03/22 00:25:14;;;;;;;6.60;3.23;;;11.50;75.40;;;;;;5031759;28;20423;-75
2023/03/22 00:27:40;;;;;;;5.87;3.50;;;11.50;75.40;;;;;;5024588;28;20586;-76
2023/03/22 00:30:06;;;;;;;7.17;3.50;;;11.40;75.70;;;;;;5028935;28;20476;-74
2023/03/22 00:32:36;;;;;;;6.70;3.83;;;11.40;75.80;;;;;;5034263;28;20660;-73
2023/03/22 00:35:04;;;;;;;7.00;3.33;;;11.40;75.70;;;;;;5026808;28;20964;-73
2023/03/22 00:37:32;;;;;;;6.47;3.83;;;11.50;75.80;;;;;;5023896;28;20432;-74
2023/03/22 00:39:59;;;;;;;6.63;4.40;;;11.50;75.80;;;;;;5025304;28;20440;-73
2023/03/22 00:42:25;;;;;;;5.73;3.83;;;11.40;75.80;;;;;;5030598;28;20558;-75
2023/03/22 00:44:50;;;;;;;6.10;3.43;;;11.40;76.10;;;;;;5025390;28;20531;-75
2023/03/22 00:47:16;;;;;;;5.60;3.90;;;11.40;75.90;;;;;;5028759;28;20177;-75
2023/03/22 00:49:41;;;;;;;6.17;3.70;;;11.30;76.20;;;;;;5021075;28;20225;-75
2023/03/22 00:52:07;;;;;;;4.83;3.40;;;11.30;76.20;;;;;;5024582;28;20217;-73
2023/03/22 00:54:33;;;;;;;5.23;3.53;;;11.30;76.20;;;;;;5025258;28;20224;-73
2023/03/22 00:56:58;;;;;;;7.80;3.60;;;11.40;76.40;;;;;;5027882;28;20597;-75
2023/03/22 00:59:24;;;;;;;5.20;3.10;;;11.40;75.90;;;;;;5022381;28;20240;-75
2023/03/22 01:01:49;;;;;;;8.50;3.30;;;11.40;75.90;;;;;;5016481;28;20916;-75
2023/03/22 01:04:16;;;;;;;4.10;2.90;;;11.40;75.90;;;;;;5015972;28;20240;-74
2023/03/22 01:06:42;;;;;;;3.60;2.57;;;11.40;75.90;;;;;;5022314;28;20255;-74
2023/03/22 01:09:13;;;;;;;6.07;3.50;;;11.50;75.70;;;;;;5019164;28;20429;-74
2023/03/22 01:11:40;;;;;;;5.93;3.17;;;11.40;75.50;;;;;;5030778;28;20958;-74
2023/03/22 01:14:08;;;;;;;3.77;2.97;;;11.30;75.70;;;;;;5020901;28;20417;-73
2023/03/22 01:16:35;;;;;;;4.03;2.60;;;11.30;75.80;;;;;;5032097;28;20420;-74
2023/03/22 01:19:01;;;;;;;5.00;3.20;;;11.20;75.80;;;;;;5034764;28;20430;-74
2023/03/22 01:21:26;;;;;;;6.70;3.00;;;11.20;75.90;;;;;;5031797;28;20460;-73
2023/03/22 01:23:52;;;;;;;4.27;3.20;;;11.10;76.10;;;;;;5028666;28;20800;-74
2023/03/22 01:26:17;;;;;;;7.30;3.10;;;11.10;76.20;;;;;;5026579;28;20544;-74
2023/03/22 01:28:43;;;;;;;8.80;3.43;;;11.00;76.50;;;;;;5023411;28;20189;-75
2023/03/22 01:31:09;;;;;;;4.90;3.30;;;11.00;76.80;;;;;;5025935;28;20213;-75
2023/03/22 01:33:34;;;;;;;6.13;3.30;;;11.00;76.80;;;;;;5023485;28;20189;-74
2023/03/22 01:36:00;;;;;;;4.00;2.97;;;10.90;77.00;;;;;;5026690;28;20193;-74
2023/03/22 01:38:25;;;;;;;4.77;3.40;;;10.90;77.10;;;;;;5022765;28;20220;-74
2023/03/22 01:40:51;;;;;;;4.33;3.00;;;10.90;77.30;;;;;;5018657;28;20212;-75
2023/03/22 01:43:17;;;;;;;5.53;3.80;;;10.80;77.40;;;;;;5020866;28;20279;-74
2023/03/22 01:45:50;;;;;;;6.43;4.30;;;10.70;77.70;;;;;;5019618;28;20236;-75
2023/03/22 01:48:32;;;;;;;8.63;4.90;;;10.50;78.40;;;;;;5020279;28;20424;-74
2023/03/22 01:51:02;;;;;;;6.03;3.70;;;10.50;78.70;;;;;;5024169;28;20538;-75
2023/03/22 01:53:31;;;;;;;5.43;3.93;;;10.50;78.90;;;;;;5020762;28;20459;-75
2023/03/22 01:55:58;;;;;;;8.37;4.07;;;10.40;78.90;;;;;;5016671;28;20429;-73
2023/03/22 01:58:24;;;;;;;6.37;3.37;;;10.40;79.00;;;;;;5025167;28;20439;-75
2023/03/22 02:00:50;;;;;;;6.17;4.10;;;10.40;79.00;;;;;;5020414;28;20463;-75
2023/03/22 02:03:24;;;;;;;6.37;4.00;;;10.30;79.20;;;;;;5026053;28;20755;-74
2023/03/22 02:05:50;;;;;;;12.10;4.70;;;10.20;79.50;;;;;;5015589;28;20440;-75
2023/03/22 02:08:16;;;;;;;5.27;3.90;;;10.20;79.70;;;;;;5023116;28;20471;-74
2023/03/22 02:10:41;;;;;;;6.03;4.00;;;10.20;79.60;;;;;;5017817;28;20494;-74
2023/03/22 02:13:28;;;;;;;5.53;3.93;;;10.20;79.60;;;;;;5023575;28;20327;-74
2023/03/22 02:16:15;;;;;;;7.30;3.80;;;10.10;79.90;;;;;;5026429;28;20228;-74
2023/03/22 02:18:53;;;;;;;5.83;4.40;;;10.10;79.90;;;;;;5018654;28;20430;-74
2023/03/22 02:21:28;;;;;;;6.43;3.80;;;10.10;79.90;;;;;;5017536;28;20467;-74
2023/03/22 02:24:54;;;;;;;7.17;4.07;;;10.00;80.00;;;;;;5026484;28;20469;-74
2023/03/22 02:27:57;;;;;;;5.33;3.87;;;10.00;80.20;;;;;;5001893;28;20804;-75
2023/03/22 02:30:41;;;;;;;6.33;3.93;;;9.90;80.30;;;;;;5014493;28;20462;-74
2023/03/22 02:33:25;;;;;;;5.60;3.40;;;9.90;80.30;;;;;;5023741;28;20500;-73
2023/03/22 02:36:11;;;;;;;5.77;4.37;;;9.90;80.50;;;;;;5017080;28;20423;-75
2023/03/22 02:39:03;;;;;;;6.73;3.90;;;9.90;80.50;;;;;;5017284;28;20511;-74
2023/03/22 02:42:07;;;;;;;7.37;3.23;;;9.90;80.60;;;;;;5019941;28;20458;-73
2023/03/22 02:44:41;;;;;;;3.67;3.30;;;9.90;80.60;;;;;;5017491;28;20465;-73
2023/03/22 02:47:17;;;;;;;5.73;3.70;;;9.90;80.50;;;;;;5022246;28;20421;-72
2023/03/22 02:50:04;;;;;;;5.20;3.33;;;9.80;80.50;;;;;;5016555;28;20412;-73
2023/03/22 02:52:39;;;;;;;5.87;3.80;;;9.80;80.50;;;;;;5024141;28;20450;-73
2023/03/22 02:55:04;;;;;;;4.60;3.00;;;9.80;80.60;;;;;;5017012;28;20424;-74
2023/03/22 02:57:49;;;;;;;4.30;3.33;;;9.80;80.50;;;;;;5026126;28;20985;-74
2023/03/22 03:00:17;;;;;;;5.77;3.10;;;9.80;80.60;;;;;;5024886;28;21037;-74
2023/03/22 03:02:48;;;;;;;6.80;3.90;;;9.70;80.60;;;;;;5020109;28;20475;-74
2023/03/22 03:05:17;;;;;;;5.97;3.53;;;9.70;80.90;;;;;;5026559;28;20415;-74
2023/03/22 03:07:47;;;;;;;6.37;3.80;;;9.70;81.10;;;;;;5029053;28;20782;-74
2023/03/22 03:10:15;;;;;;;7.27;3.80;;;9.60;81.20;;;;;;5017463;28;20436;-74
2023/03/22 03:12:41;;;;;;;5.30;3.33;;;9.60;81.40;;;;;;5017465;28;20504;-75
2023/03/22 03:15:19;;;;;;;7.70;3.70;;;9.60;81.40;;;;;;5028707;28;20500;-74
2023/03/22 03:18:00;;;;;;;4.90;3.93;;;9.60;81.50;;;;;;5021637;28;20603;-73
2023/03/22 03:20:33;;;;;;;5.40;3.80;;;9.60;81.40;;;;;;5029989;28;20463;-74
2023/03/22 03:23:15;;;;;;;4.57;3.60;;;9.50;81.70;;;;;;5028344;28;20459;-74
2023/03/22 03:25:48;;;;;;;5.17;3.23;;;9.50;81.80;;;;;;5039030;28;20487;-73
2023/03/22 03:28:42;;;;;;;7.47;4.20;;;9.50;81.80;;;;;;5047056;28;20421;-74
2023/03/22 03:31:10;;;;;;;7.57;4.00;;;9.50;81.80;;;;;;5047207;28;20450;-75
2023/03/22 03:33:52;;;;;;;6.13;4.47;;;9.30;81.70;;;;;;5042610;28;20493;-73
2023/03/22 03:36:20;;;;;;;6.23;4.13;;;9.30;81.80;;;;;;5050145;28;20454;-73
2023/03/22 03:38:50;;;;;;;7.33;4.40;;;9.30;81.90;;;;;;5026076;28;20515;-76
2023/03/22 03:41:20;;;;;;;6.00;3.90;;;9.30;81.90;;;;;;5021459;28;20524;-75
2023/03/22 03:43:47;;;;;;;5.80;3.87;;;9.30;81.90;;;;;;5024660;28;21010;-74
2023/03/22 03:46:14;;;;;;;7.00;4.47;;;9.30;81.90;;;;;;5022581;28;20435;-75
2023/03/22 03:48:44;;;;;;;10.47;4.20;;;9.30;81.90;;;;;;5024243;28;20416;-73
2023/03/22 03:51:09;;;;;;;9.47;4.60;;;9.40;81.90;;;;;;5018930;28;20823;-74
2023/03/22 03:53:35;;;;;;;6.03;4.10;;;9.30;81.90;;;;;;5027630;28;20427;-74
2023/03/22 03:56:01;;;;;;;4.93;3.37;;;9.30;81.90;;;;;;5021663;28;20335;-73
2023/03/22 03:58:29;;;;;;;7.57;4.07;;;9.30;81.80;;;;;;5024067;28;20178;-75
2023/03/22 04:00:55;;;;;;;6.73;4.00;;;9.30;81.50;;;;;;5012275;28;20292;-73
2023/03/22 04:03:20;;;;;;;9.13;5.27;;;9.30;81.40;;;;;;5021235;28;20537;-75
2023/03/22 04:05:46;;;;;;;6.47;4.23;;;9.30;81.50;;;;;;5018297;28;20424;-74
2023/03/22 04:08:11;;;;;;;6.40;4.20;;;9.30;81.70;;;;;;5025062;28;20185;-73
2023/03/22 04:10:37;;;;;;;5.93;3.80;;;9.20;81.70;;;;;;5016702;28;20206;-74
2023/03/22 04:13:03;;;;;;;6.70;4.07;;;9.20;81.70;;;;;;5023699;28;20732;-74
2023/03/22 04:15:28;;;;;;;7.03;3.60;;;9.20;81.90;;;;;;5024431;28;20609;-74
2023/03/22 04:17:54;;;;;;;7.57;4.20;;;9.20;81.70;;;;;;5022981;28;20196;-73
2023/03/22 04:20:20;;;;;;;5.67;4.07;;;9.20;82.10;;;;;;5023776;28;20284;-73
2023/03/22 04:22:47;;;;;;;6.20;4.07;;;9.20;81.90;;;;;;5022414;28;20205;-73
2023/03/22 04:25:16;;;;;;;7.60;4.13;;;9.10;81.90;;;;;;5024476;28;21005;-71
2023/03/22 04:27:43;;;;;;;8.90;5.33;;;9.10;81.70;;;;;;5023890;28;20405;-73
2023/03/22 04:30:17;;;;;;;9.60;4.93;;;9.00;81.40;;;;;;5031509;28;21055;-72
2023/03/22 04:32:43;;;;;;;7.27;4.03;;;9.00;81.40;;;;;;5024222;28;20423;-74
2023/03/22 04:35:09;;;;;;;5.73;4.00;;;9.10;81.10;;;;;;5027703;28;20428;-73
2023/03/22 04:37:35;;;;;;;6.03;4.10;;;9.10;81.10;;;;;;5024019;28;20420;-73
2023/03/22 04:40:05;;;;;;;6.97;3.93;;;9.20;80.30;;;;;;5027529;28;20678;-75
2023/03/22 04:42:31;;;;;;;12.33;4.00;;;9.30;80.00;;;;;;5030639;28;20284;-72
2023/03/22 04:44:56;;;;;;;6.17;3.90;;;9.40;79.70;;;;;;5027190;28;20495;-73
2023/03/22 04:47:22;;;;;;;9.93;4.07;;;9.50;79.50;;;;;;5018186;28;20193;-74
2023/03/22 04:49:47;;;;;;;6.00;3.37;;;9.40;79.00;;;;;;5028010;28;20181;-72
2023/03/22 04:52:13;;;;;;;6.23;3.00;;;9.50;78.90;;;;;;5014525;28;20579;-72
2023/03/22 04:54:38;;;;;;;6.13;3.40;;;9.50;78.70;;;;;;5024891;28;20200;-74
2023/03/22 04:57:05;;;;;;;5.57;4.10;;;9.50;78.60;;;;;;5017782;28;20186;-72
2023/03/22 04:59:30;;;;;;;7.83;3.83;;;9.40;78.60;;;;;;5021201;28;20188;-73
2023/03/22 05:01:56;;;;;;;7.00;4.07;;;9.50;78.40;;;;;;5026305;28;20479;-72
2023/03/22 05:04:22;;;;;;;6.13;4.00;;;9.40;78.40;;;;;;5021611;28;20266;-71
2023/03/22 05:06:47;;;;;;;6.73;3.70;;;9.30;78.70;;;;;;5019457;28;20177;-73
2023/03/22 05:09:13;;;;;;;8.40;4.17;;;9.30;78.90;;;;;;5021359;28;20909;-74
2023/03/22 05:11:39;;;;;;;5.80;3.90;;;9.30;78.90;;;;;;5018550;28;20216;-72
2023/03/22 05:14:06;;;;;;;5.43;3.87;;;9.30;79.00;;;;;;5023282;28;20424;-75
2023/03/22 05:16:33;;;;;;;7.97;4.10;;;9.20;79.20;;;;;;5030339;28;20427;-74
2023/03/22 05:19:01;;;;;;;8.47;4.67;;;9.10;79.60;;;;;;5021004;28;20421;-72
2023/03/22 05:21:28;;;;;;;11.50;4.03;;;9.00;79.70;;;;;;5020379;28;20459;-73
2023/03/22 05:23:55;;;;;;;6.17;3.70;;;9.00;79.70;;;;;;5026124;28;20464;-73
2023/03/22 05:26:23;;;;;;;6.80;3.87;;;9.00;80.00;;;;;;5028696;28;20420;-73
2023/03/22 05:28:50;;;;;;;8.57;4.40;;;9.10;79.90;;;;;;5022435;28;21087;-73
2023/03/22 05:31:16;;;;;;;7.40;4.00;;;9.10;79.70;;;;;;5026599;28;21021;-73
2023/03/22 05:33:42;;;;;;;8.97;4.00;;;9.00;79.70;;;;;;5015528;28;20991;-73
2023/03/22 05:36:10;;;;;;;6.50;4.50;;;9.00;80.00;;;;;;5023544;28;20500;-71
2023/03/22 05:38:36;;;;;;;7.80;4.37;;;8.90;80.00;;;;;;5016236;28;20427;-74
2023/03/22 05:41:04;;;;;;;5.73;3.97;;;8.90;80.50;;;;;;5021018;28;20461;-74
2023/03/22 05:43:31;;;;;;;6.10;3.97;;;8.90;80.60;;;;;;5016020;28;20669;-75
2023/03/22 05:45:57;;;;;;;6.17;4.10;;;9.00;80.50;;;;;;5022932;28;20954;-74
2023/03/22 05:48:22;;;;;;;7.07;3.53;;;9.00;80.20;;;;;;5018956;28;20424;-75
2023/03/22 05:50:48;;;;;;;5.90;4.23;;;9.00;80.20;;;;;;5021987;28;20197;-72
2023/03/22 05:53:14;;;;;;;7.13;4.07;;;9.00;80.20;;;;;;5022110;28;21056;-73
2023/03/22 05:55:39;;;;;;;5.27;4.20;;;9.00;80.20;;;;;;5027239;28;20181;-74
2023/03/22 05:58:06;;;;;;;8.00;3.73;;;9.00;80.20;;;;;;5025251;28;20216;-73
2023/03/22 06:00:32;;;;;;;7.47;4.47;;;9.00;80.00;;;;;;5017839;28;20691;-72
2023/03/22 06:03:02;;;;;;;9.23;4.70;;;9.00;80.00;;;;;;5025555;28;20480;-76
2023/03/22 06:05:30;;;;;;;8.40;5.00;;;9.00;80.20;;;;;;5040474;28;20710;-74
2023/03/22 06:07:56;;;;;;;7.43;4.40;;;9.00;80.00;;;;;;5034912;28;20424;-73
2023/03/22 06:10:23;;;;;;;6.93;4.50;;;9.10;79.70;;;;;;5034229;28;20456;-73
2023/03/22 06:12:49;;;;;;;7.00;4.30;;;9.10;79.60;;;;;;5037148;28;20792;-72
2023/03/22 06:15:15;;;;;;;7.50;4.37;;;9.10;79.60;;;;;;5028977;28;20416;-75
2023/03/22 06:17:41;;;;;;;8.60;4.77;;;9.00;79.70;;;;;;5036603;28;20434;-73
2023/03/22 06:20:09;;;;;;;6.93;4.80;;;9.00;79.70;;;;;;5038742;28;20244;-75
2023/03/22 06:22:36;;;;;;;9.83;4.40;;;9.10;79.90;;;;;;5027262;28;20474;-74
2023/03/22 06:25:02;;;;;;;8.97;5.03;;;9.10;79.70;;;;;;5027488;28;21015;-73
2023/03/22 06:27:27;;;;;;;6.37;4.27;;;9.20;79.60;;;;;;5021696;28;20499;-75
2023/03/22 06:29:53;;;;;;;6.77;4.60;;;9.20;79.50;;;;;;5016570;28;20553;-72
2023/03/22 06:32:22;;;;;;;11.53;5.27;;;9.30;79.20;;;;;;5018051;28;20576;-74
2023/03/22 06:34:51;;;;;;;5.87;4.00;;;9.30;79.30;;;;;;5014589;28;20236;-75
2023/03/22 06:37:17;;;;;;;7.97;4.90;;;9.30;79.20;;;;;;5022528;28;20504;-74
2023/03/22 06:39:43;;;;;;;9.30;4.63;;;9.40;79.00;;;;;;5017049;28;20961;-74
2023/03/22 06:42:09;;;;;;;8.07;4.80;;;9.40;78.90;;;;;;5019011;28;20492;-74
2023/03/22 06:44:35;;;;;;;8.63;4.37;;;9.50;78.10;;;;;;5016903;28;20560;-73
2023/03/22 06:47:01;;;;;;;7.67;4.00;;;9.60;77.80;;;;;;5022349;28;20414;-73
2023/03/22 06:49:27;;;;;;;7.90;4.83;;;9.60;77.80;;;;;;5023272;28;20219;-74
2023/03/22 06:51:53;;;;;;;11.00;4.50;;;9.80;77.80;;;;;;5029039;28;20460;-74
2023/03/22 06:54:19;;;;;;;8.93;5.50;;;9.90;77.60;;;;;;5033025;28;20189;-73
2023/03/22 06:56:44;;;;;;;8.10;5.27;;;10.00;77.10;;;;;;5032783;28;20177;-74
2023/03/22 06:59:10;;;;;;;7.80;4.77;;;10.00;77.00;;;;;;5023245;28;20174;-73
2023/03/22 07:01:36;;;;;;;4.83;4.00;;;10.00;77.00;;;;;;5020941;28;20213;-73
2023/03/22 07:04:01;;;;;;;12.23;4.90;;;10.10;76.80;;;;;;5024246;28;20577;-73
2023/03/22 07:06:27;;;;;;;8.43;5.00;;;10.20;76.50;;;;;;5021868;28;20832;-74
2023/03/22 07:08:52;;;;;;;8.57;4.63;;;10.30;76.20;;;;;;5032404;28;20340;-74
2023/03/22 07:11:19;;;;;;;8.20;4.50;;;10.30;75.80;;;;;;5023736;28;20679;-74
2023/03/22 07:13:44;;;;;;;6.87;4.40;;;10.40;75.40;;;;;;5027323;28;20173;-78
2023/03/22 07:16:10;;;;;;;8.70;4.30;;;10.50;74.90;;;;;;5035021;28;20439;-74
2023/03/22 07:18:36;;;;;;;8.17;4.50;;;10.60;74.50;;;;;;5036675;28;20204;-76
2023/03/22 07:21:02;;;;;;;9.63;4.73;;;10.70;74.30;;;;;;5028524;28;20194;-73
2023/03/22 07:23:28;;;;;;;7.87;4.17;;;10.80;73.90;;;;;;5031180;28;20226;-74
2023/03/22 07:25:54;;;;;;;8.10;3.70;;;10.80;73.60;;;;;;5037941;28;20477;-74
2023/03/22 07:28:21;;;;;;;6.20;3.77;;;10.80;72.60;;;;;;5037460;28;20245;-74
2023/03/22 07:30:46;;;;;;;3.00;2.40;;;10.90;72.00;;;;;;5028120;28;20449;-74
2023/03/22 07:33:12;;;;;;;4.47;3.10;;;10.90;70.80;;;;;;5032058;28;20427;-74
2023/03/22 07:35:38;;;;;;;8.97;3.07;;;11.10;70.40;;;;;;5035449;28;20235;-74
2023/03/22 07:38:05;;;;;;;3.67;2.57;;;11.20;69.20;;;;;;5031093;28;20193;-74
2023/03/22 07:40:31;;;;;;;3.70;2.50;;;11.40;69.10;;;;;;5022553;28;20201;-74
2023/03/22 07:42:57;;;;;;;3.13;2.80;;;11.60;68.50;;;;;;5024737;28;20528;-74
2023/03/22 07:45:24;;;;;;;6.13;3.00;;;11.80;68.30;;;;;;5034077;28;20269;-75
2023/03/22 07:47:50;;;;;;;2.93;2.27;;;11.90;68.20;;;;;;5027506;28;21085;-74
2023/03/22 07:50:16;;;;;;;6.33;2.90;;;12.00;67.50;;;;;;5034864;28;20526;-73
2023/03/22 07:52:43;;;;;;;3.97;2.07;;;12.10;67.30;;;;;;5032063;28;20194;-74
2023/03/22 07:55:11;;;;;;;3.80;2.60;;;12.10;67.50;;;;;;5031178;28;20988;-75
2023/03/22 07:57:37;;;;;;;4.97;2.50;;;12.20;67.20;;;;;;5030098;28;20786;-74
2023/03/22 08:00:05;;;;;;;7.40;2.77;;;12.30;66.90;;;;;;5042186;28;20446;-76
2023/03/22 08:02:30;;;;;;;4.90;2.37;;;12.40;66.90;;;;;;5051669;28;20555;-74
2023/03/22 08:04:56;;;;;;;3.17;2.50;;;12.50;66.40;;;;;;5050519;28;20424;-75
2023/03/22 08:07:24;;;;;;;4.73;2.50;;;12.50;66.70;;;;;;5052586;28;20364;-74
2023/03/22 08:09:50;;;;;;;11.87;3.40;;;12.60;66.40;;;;;;5054644;28;20180;-74
2023/03/22 08:12:16;;;;;;;7.43;2.90;;;12.70;66.40;;;;;;5046057;28;20464;-72
2023/03/22 08:14:42;;;;;;;5.13;2.00;;;12.70;66.40;;;;;;5048811;28;20427;-74
2023/03/22 08:17:07;;;;;;;4.60;2.00;;;12.70;66.00;;;;;;5043856;28;20428;-74
2023/03/22 08:19:33;;;;;;;4.70;2.20;;;12.80;66.00;;;;;;5034174;28;20259;-74
2023/03/22 08:21:59;;;;;;;3.77;2.20;;;12.90;65.70;;;;;;5028726;28;20260;-74
2023/03/22 08:24:25;;;;;;;3.97;2.40;;;12.90;65.80;;;;;;5026107;28;20425;-73
2023/03/22 08:26:52;;;;;;;5.67;2.40;;;13.00;65.80;;;;;;5028198;28;20430;-72
2023/03/22 08:29:19;;;;;;;4.17;2.17;;;13.10;66.10;;;;;;5023726;28;20435;-74
2023/03/22 08:31:45;;;;;;;4.37;2.50;;;13.10;66.00;;;;;;5024631;28;20475;-73
2023/03/22 08:34:11;;;;;;;4.83;2.50;;;13.20;66.00;;;;;;5029038;28;20673;-75
2023/03/22 08:36:37;;;;;;;3.60;2.30;;;13.30;66.00;;;;;;5024227;28;20420;-75
2023/03/22 08:39:03;;;;;;;3.60;2.47;;;13.30;65.80;;;;;;5027723;28;20233;-74
2023/03/22 08:41:29;;;;;;;3.63;2.17;;;13.50;66.00;;;;;;5032247;28;20876;-75
2023/03/22 08:43:56;;;;;;;3.30;2.00;;;13.50;65.70;;;;;;5029266;28;20511;-75
2023/03/22 08:46:21;;;;;;;4.70;1.93;;;13.70;65.60;;;;;;5020559;28;20794;-74
2023/03/22 08:48:50;;;;;;;4.20;2.10;;;13.80;65.40;;;;;;5030459;28;20420;-75
2023/03/22 08:51:20;;;;;;;4.33;2.60;;;13.70;65.60;;;;;;5030935;28;20225;-74
2023/03/22 08:53:47;;;;;;;7.17;2.10;;;13.80;65.40;;;;;;5029481;28;20523;-74
2023/03/22 08:56:15;;;;;;;3.43;2.07;;;13.90;65.30;;;;;;5019235;28;20476;-76
2023/03/22 08:58:45;;;;;;;2.57;1.83;;;13.90;65.40;;;;;;5028347;28;20436;-74
2023/03/22 09:01:12;;;;;;;7.53;2.23;;;14.00;65.10;;;;;;5024599;28;20510;-74
2023/03/22 09:03:38;;;;;;;6.20;2.50;;;14.10;64.80;;;;;;5031152;28;20504;-74
2023/03/22 09:06:04;;;;;;;4.50;2.17;;;14.20;64.70;;;;;;5023658;28;20426;-74
2023/03/22 09:08:30;;;;;;;2.57;1.70;;;14.20;64.50;;;;;;5024670;28;20417;-75
2023/03/22 09:10:55;;;;;;;4.03;1.70;;;14.20;65.00;;;;;;5018052;28;20988;-75
2023/03/22 09:13:21;;;;;;;3.00;1.70;;;14.20;65.00;;;;;;5023330;28;20694;-75
2023/03/22 09:15:47;;;;;;;2.40;1.60;;;14.30;65.10;;;;;;5025520;28;20183;-75
2023/03/22 09:18:13;;;;;;;2.27;1.30;;;14.30;64.80;;;;;;5026066;28;20458;-75
2023/03/22 09:20:39;;;;;;;3.20;1.50;;;14.40;64.50;;;;;;5023791;28;20214;-76
2023/03/22 09:23:05;;;;;;;3.20;2.10;;;14.50;64.70;;;;;;5030188;28;20575;-74
2023/03/22 09:25:31;;;;;;;3.80;2.03;;;14.60;64.40;;;;;;5025812;28;20660;-74
2023/03/22 09:27:56;;;;;;;4.77;1.70;;;14.70;63.90;;;;;;5026585;28;20267;-74
2023/03/22 09:30:22;;;;;;;2.40;1.67;;;14.70;63.80;;;;;;5022363;28;20505;-75
2023/03/22 09:32:48;;;;;;;2.43;1.37;;;14.80;63.90;;;;;;5032394;28;20278;-74
2023/03/22 09:35:14;;;;;;;5.83;1.83;;;14.90;63.70;;;;;;5031410;28;20501;-74
2023/03/22 09:37:40;;;;;;;2.10;1.50;;;15.00;63.20;;;;;;5020880;28;20476;-75
2023/03/22 09:40:06;;;;;;;5.13;1.93;;;15.10;62.90;;;;;;5036585;28;20223;-74
2023/03/22 09:42:35;;;;;;;8.00;2.17;;;15.00;62.20;;;;;;5036992;28;20479;-75
2023/03/22 09:45:02;;;;;;;4.07;1.80;;;15.10;62.00;;;;;;5031952;28;20465;-74
2023/03/22 09:47:37;;;;;;;2.83;1.67;;;15.10;62.00;;;;;;5036172;28;20503;-75
2023/03/22 09:50:10;;;;;;;2.50;1.40;;;15.20;61.30;;;;;;5031879;28;20455;-75
2023/03/22 09:52:36;;;;;;;3.87;1.80;;;15.30;61.30;;;;;;5039704;28;20431;-74
2023/03/22 09:55:01;;;;;;;4.20;1.70;;;15.40;60.40;;;;;;5036727;28;20466;-74
2023/03/22 09:57:35;;;;;;;2.83;1.63;;;15.50;60.30;;;;;;5034383;28;20218;-75
2023/03/22 10:00:28;;;;;;;3.10;1.60;;;15.60;59.70;;;;;;5044007;28;20181;-75
2023/03/22 10:02:56;;;;;;;5.13;1.67;;;15.60;59.90;;;;;;5029273;28;20471;-75
2023/03/22 10:05:33;;;;;;;3.30;1.60;;;15.70;59.70;;;;;;5027777;28;20969;-74
2023/03/22 10:08:23;;;;;;;1.60;1.27;;;15.70;58.70;;;;;;5023316;28;20477;-75
2023/03/22 10:10:51;;;;;;;2.50;1.43;;;15.70;58.70;;;;;;5016863;28;20925;-74
2023/03/22 10:13:27;;;;;;;4.00;1.67;;;15.90;58.90;;;;;;5028231;28;20515;-78
2023/03/22 10:15:58;;;;;;;5.87;1.97;;;16.10;58.00;;;;;;5020228;28;20462;-74
2023/03/22 10:18:35;;;;;;;10.97;2.17;;;16.10;58.10;;;;;;5025788;28;20419;-81
2023/03/22 10:21:03;;;;;;;2.70;1.77;;;16.10;59.10;;;;;;5017589;28;20460;-74
2023/03/22 10:23:40;;;;;;;7.10;2.20;;;16.30;59.20;;;;;;5026365;28;20496;-75
2023/03/22 10:26:07;;;;;;;4.10;1.60;;;16.30;59.10;;;;;;5026259;28;20430;-75
2023/03/22 10:28:37;;;;;;;3.17;2.00;;;16.30;58.70;;;;;;5020382;28;20457;-74
2023/03/22 10:31:04;;;;;;;4.13;2.03;;;16.10;58.70;;;;;;5018780;28;20464;-75
2023/03/22 10:33:56;;;;;;;4.70;2.00;;;16.00;59.20;;;;;;5021699;28;20447;-74
2023/03/22 10:36:26;;;;;;;5.63;1.67;;;16.00;59.20;;;;;;5027397;28;20946;-74
2023/03/22 10:39:00;;;;;;;3.10;1.60;;;16.20;59.10;;;;;;5018661;28;20940;-74
2023/03/22 10:41:27;;;;;;;2.37;1.50;;;16.30;58.90;;;;;;5025782;28;21037;-75
2023/03/22 10:43:57;;;;;;;3.27;1.60;;;16.60;58.40;;;;;;5024434;28;20465;-73
2023/03/22 10:46:25;;;;;;;3.93;2.00;;;16.90;57.80;;;;;;5032098;28;20450;-74
2023/03/22 10:48:57;;;;;;;1.80;1.40;;;17.30;56.40;;;;;;5027031;28;21211;-74
2023/03/22 10:51:29;;;;;;;1.93;1.70;;;17.70;55.70;;;;;;5023567;28;20457;-75
2023/03/22 10:53:57;;;;;;;3.73;2.00;;;18.10;54.90;;;;;;5019792;28;20496;-74
2023/03/22 10:56:23;;;;;;;2.50;1.50;;;18.50;53.60;;;;;;5025005;28;20432;-75
2023/03/22 10:58:49;;;;;;;2.37;1.60;;;18.70;53.20;;;;;;5018089;28;20427;-75
2023/03/22 11:01:28;;;;;;;2.13;1.50;;;19.30;52.20;;;;;;5024903;28;20582;-75
2023/03/22 11:04:06;;;;;;;4.43;1.80;;;19.40;51.40;;;;;;5026653;28;20991;-73
2023/03/22 11:06:36;;;;;;;4.00;1.93;;;20.00;50.30;;;;;;5023797;28;20418;-74
2023/03/22 11:09:31;;;;;;;5.17;1.50;;;20.20;49.40;;;;;;5038650;28;20531;-74
2023/03/22 11:11:59;;;;;;;2.57;1.20;;;20.40;48.90;;;;;;4990196;28;20459;-75
2023/03/22 11:14:24;;;;;;;3.73;1.30;;;20.50;47.30;;;;;;4988677;28;20800;-76
2023/03/22 11:17:07;;;;;;;3.03;1.40;;;20.30;47.00;;;;;;4984238;28;20466;-74
2023/03/22 11:19:35;;;;;;;2.20;1.40;;;19.90;47.10;;;;;;4981688;28;20176;-74
2023/03/22 11:22:05;;;;;;;3.23;1.40;;;19.70;48.50;;;;;;4981199;28;20457;-73
2023/03/22 11:24:33;;;;;;;3.00;1.43;;;19.90;47.80;;;;;;4991506;28;20550;-73
2023/03/22 11:27:01;;;;;;;2.70;1.33;;;19.40;48.90;;;;;;4987006;28;20423;-73
2023/03/22 11:29:27;;;;;;;1.90;1.40;;;19.30;49.10;;;;;;4990995;28;20520;-76
2023/03/22 11:31:54;;;;;;;3.80;1.57;;;19.20;49.40;;;;;;4971119;28;20462;-74
2023/03/22 11:34:22;;;;;;;1.80;1.30;;;19.40;49.40;;;;;;4991736;28;20186;-74
2023/03/22 11:36:55;;;;;;;2.50;1.20;;;19.10;45.90;;;;;;4987192;28;20519;-75
2023/03/22 11:39:21;;;;;;;4.30;1.30;;;19.00;45.90;;;;;;4999457;28;20699;-73
2023/03/22 11:41:47;;;;;;;2.50;1.23;;;19.20;44.30;;;;;;4992608;28;20504;-74
2023/03/22 11:44:17;;;;;;;1.43;1.10;;;19.40;44.60;;;;;;4994152;28;20461;-73
2023/03/22 11:46:59;;;;;;;1.83;1.27;;;19.50;43.70;;;;;;4995109;28;20441;-75
2023/03/22 11:49:35;;;;;;;1.73;1.20;;;19.60;43.80;;;;;;5028180;28;20436;-74
2023/03/22 11:52:08;;;;;;;2.60;1.40;;;19.80;43.10;;;;;;5027262;28;20871;-75
2023/03/22 11:54:36;;;;;;;2.97;1.40;;;19.90;42.70;;;;;;5024832;28;20429;-77
2023/03/22 11:57:05;;;;;;;1.83;1.30;;;20.00;42.80;;;;;;5029933;28;20821;-75
2023/03/22 11:59:44;;;;;;;2.47;1.47;;;20.10;41.00;;;;;;5023940;28;20427;-75
2023/03/22 12:02:13;;;;;;;2.60;1.20;;;20.40;41.40;;;;;;5022244;28;20481;-75
2023/03/22 12:04:42;;;;;;;2.63;1.23;;;20.30;40.00;;;;;;5022422;28;20845;-75
2023/03/22 12:07:18;;;;;;;4.50;1.10;;;20.00;40.80;;;;;;5028837;28;20427;-74
2023/03/22 12:10:19;;;;;;;1.67;1.27;;;20.10;41.50;;;;;;5027669;28;20474;-74
2023/03/22 12:12:51;;;;;;;2.03;1.03;;;20.10;41.60;;;;;;4985218;28;20525;-73
2023/03/22 12:15:21;;;;;;;7.00;1.50;;;20.30;40.20;;;;;;4990980;28;21262;-75
2023/03/22 12:18:11;;;;;;;2.47;1.27;;;20.50;39.10;;;;;;4976339;28;20430;-75
2023/03/22 12:20:51;;;;;;;2.30;1.37;;;20.40;39.40;;;;;;4979527;28;20546;-74
2023/03/22 12:23:23;;;;;;;2.00;1.30;;;20.20;40.20;;;;;;4982776;28;20894;-76
2023/03/22 12:26:14;;;;;;;3.53;1.50;;;19.70;40.00;;;;;;4980901;28;20431;-74
2023/03/22 12:28:51;;;;;;;2.50;1.10;;;19.60;40.70;;;;;;4925107;29;20498;-74
2023/03/22 12:31:21;;;;;;;1.67;1.00;;;19.30;41.20;;;;;;4927904;29;21355;-74
2023/03/22 12:33:53;;;;;;;4.07;1.50;;;19.40;41.50;;;;;;4933936;29;21343;-74
2023/03/22 12:36:26;;;;;;;2.10;1.33;;;19.60;41.10;;;;;;4927043;29;20815;-74
2023/03/22 12:38:55;;;;;;;10.10;2.63;;;19.80;40.60;;;;;;4933675;29;20422;-74
2023/03/22 12:41:34;;;;;;;1.30;0.90;;;20.30;39.50;;;;;;4913533;29;20503;-75
2023/03/22 12:44:15;;;;;;;1.80;1.43;;;20.50;37.40;;;;;;4933315;29;20495;-74
2023/03/22 12:47:05;;;;;;;1.30;1.10;;;20.40;38.00;;;;;;4933999;29;20456;-75
2023/03/22 12:49:40;;;;;;;5.93;1.40;;;20.20;38.80;;;;;;4994294;28;20438;-73
2023/03/22 12:52:24;;;;;;;4.20;1.20;;;20.20;38.20;;;;;;4995992;28;20465;-73
2023/03/22 12:54:51;;;;;;;3.10;1.40;;;20.00;39.10;;;;;;4991015;28;20435;-73
2023/03/22 12:57:17;;;;;;;1.50;1.20;;;19.90;40.70;;;;;;4984958;28;20430;-73
2023/03/22 12:59:46;;;;;;;1.63;1.07;;;19.90;40.20;;;;;;4981466;28;20466;-74
2023/03/22 13:02:15;;;;;;;1.33;1.00;;;20.00;39.50;;;;;;4986658;28;20320;-74